Time;durP1;ratioP1;P1;durP2;ratioP2;P2;SDS_P1;SDS_P2;PMS_P1;PMS_P2;Temp;Humidity;BMP_temperature;BMP_pressure;BME280_temperature;BME280_humidity;BME280_pressure;Samples;Min_cycle;Max_cycle;Signal;HPM_P1;HPM_P2
2022/10/05 00:02:23;;;;;;;5.85;4.07;;;16.30;99.90;;;;;;5116753;27;20049;-56
2022/10/05 00:04:54;;;;;;;5.13;4.10;;;16.30;99.90;;;;;;5120961;27;20066;-56
2022/10/05 00:07:21;;;;;;;5.25;3.83;;;16.30;99.90;;;;;;5097197;27;20482;-54
2022/10/05 00:09:53;;;;;;;5.05;4.35;;;16.30;99.90;;;;;;5078948;27;20036;-56
2022/10/05 00:12:20;;;;;;;5.47;3.97;;;16.30;99.90;;;;;;5024605;27;20373;-58
2022/10/05 00:14:48;;;;;;;8.75;4.47;;;16.30;99.90;;;;;;5079669;27;20052;-54
2022/10/05 00:17:19;;;;;;;4.60;3.75;;;16.30;99.90;;;;;;5020780;28;20034;-56
2022/10/05 00:19:45;;;;;;;4.65;3.95;;;16.20;99.90;;;;;;5086054;27;20032;-55
2022/10/05 00:22:16;;;;;;;11.07;4.43;;;16.20;99.90;;;;;;5019685;28;20031;-57
2022/10/05 00:24:47;;;;;;;6.57;4.50;;;16.20;99.90;;;;;;5085554;27;20514;-57
2022/10/05 00:27:19;;;;;;;6.88;4.10;;;16.20;99.90;;;;;;5019909;28;20053;-57
2022/10/05 00:29:45;;;;;;;;;;;16.20;99.90;;;;;;5085156;27;20378;-55
2022/10/05 00:32:11;;;;;;;4.00;3.60;;;16.20;99.90;;;;;;5020592;28;19909;-58
2022/10/05 00:34:37;;;;;;;5.18;3.70;;;16.10;99.90;;;;;;5074612;27;20080;-58
2022/10/05 00:37:03;;;;;;;3.72;3.38;;;16.10;99.90;;;;;;5031083;27;20022;-58
2022/10/05 00:39:29;;;;;;;5.32;3.67;;;16.10;99.90;;;;;;5060842;27;20482;-55
2022/10/05 00:42:13;;;;;;;5.72;3.58;;;16.20;99.90;;;;;;5044716;27;20028;-54
2022/10/05 00:44:44;;;;;;;5.65;3.65;;;16.10;99.90;;;;;;5059942;27;20084;-53
2022/10/05 00:47:38;;;;;;;4.15;3.63;;;16.20;99.90;;;;;;5041119;27;20368;-56
2022/10/05 00:50:35;;;;;;;5.22;3.80;;;16.20;99.90;;;;;;5070500;27;20027;-54
2022/10/05 00:53:15;;;;;;;4.93;3.85;;;16.20;99.90;;;;;;5001537;28;20099;-52
2022/10/05 00:55:49;;;;;;;5.38;3.70;;;16.20;99.90;;;;;;5084339;27;20027;-56
2022/10/05 00:58:41;;;;;;;4.20;3.80;;;16.20;99.90;;;;;;5020160;28;20112;-55
2022/10/05 01:01:32;;;;;;;5.63;4.10;;;16.20;99.90;;;;;;5007788;27;20046;-55
2022/10/05 01:04:11;;;;;;;3.90;3.30;;;16.20;99.90;;;;;;5038651;28;20045;-52
2022/10/05 01:07:05;;;;;;;5.90;4.22;;;16.20;99.90;;;;;;5075319;27;20040;-51
2022/10/05 01:09:59;;;;;;;3.88;3.58;;;16.20;99.90;;;;;;5027642;28;20015;-54
2022/10/05 01:12:39;;;;;;;6.13;3.95;;;16.20;99.90;;;;;;5067091;27;20546;-51
2022/10/05 01:15:12;;;;;;;5.75;4.00;;;16.20;99.90;;;;;;5110100;27;20024;-50
2022/10/05 01:17:55;;;;;;;4.50;3.90;;;16.20;99.90;;;;;;5078477;28;20027;-49
2022/10/05 01:20:26;;;;;;;6.00;4.30;;;16.10;99.90;;;;;;5105614;27;20015;-51
2022/10/05 01:23:10;;;;;;;6.65;4.28;;;16.20;99.90;;;;;;5082196;27;20038;-57
2022/10/05 01:26:14;;;;;;;5.18;4.47;;;16.20;99.90;;;;;;5101483;28;20033;-55
2022/10/05 01:28:52;;;;;;;7.90;5.50;;;16.10;99.90;;;;;;4996244;28;20041;-57
2022/10/05 01:31:33;;;;;;;6.63;4.80;;;16.10;99.90;;;;;;5024263;28;20029;-58
2022/10/05 01:34:15;;;;;;;4.60;4.05;;;16.10;99.90;;;;;;5112682;27;20027;-58
2022/10/05 01:37:03;;;;;;;4.90;4.32;;;16.10;99.90;;;;;;5088848;27;20608;-59
2022/10/05 01:39:44;;;;;;;4.45;3.85;;;16.10;99.90;;;;;;5003159;28;20133;-58
2022/10/05 01:42:35;;;;;;;5.70;4.28;;;16.10;99.90;;;;;;5085717;27;20031;-51
2022/10/05 01:45:15;;;;;;;4.43;3.90;;;16.10;99.90;;;;;;5023620;28;20483;-54
2022/10/05 01:47:48;;;;;;;4.38;3.97;;;16.00;99.90;;;;;;5087963;27;20033;-56
2022/10/05 01:50:25;;;;;;;5.22;4.70;;;16.10;99.90;;;;;;5023488;28;20029;-50
2022/10/05 01:53:04;;;;;;;6.03;4.90;;;16.10;99.90;;;;;;5088124;27;20199;-52
2022/10/05 01:55:53;;;;;;;5.55;4.47;;;16.10;99.90;;;;;;5023033;28;20040;-57
2022/10/05 01:58:39;;;;;;;4.40;3.95;;;16.00;99.90;;;;;;5081346;27;20410;-54
2022/10/05 02:01:25;;;;;;;7.40;5.75;;;16.10;99.90;;;;;;5029715;27;20033;-55
2022/10/05 02:04:04;;;;;;;7.03;5.22;;;16.00;99.90;;;;;;5119207;27;20754;-53
2022/10/05 02:06:36;;;;;;;6.40;5.22;;;16.00;99.90;;;;;;5119124;27;20056;-57
2022/10/05 02:09:10;;;;;;;5.90;4.95;;;16.00;99.90;;;;;;5068463;27;20482;-56
2022/10/05 02:11:37;;;;;;;5.05;4.55;;;15.90;99.90;;;;;;5120866;27;20032;-58
2022/10/05 02:14:14;;;;;;;5.50;4.80;;;15.90;99.90;;;;;;5068628;27;20445;-54
2022/10/05 02:16:45;;;;;;;5.32;4.82;;;15.90;99.90;;;;;;5120400;27;20370;-56
2022/10/05 02:19:17;;;;;;;5.78;5.25;;;15.90;99.90;;;;;;5068726;27;20107;-52
2022/10/05 02:21:47;;;;;;;7.47;5.82;;;15.90;99.90;;;;;;5119334;27;20666;-49
2022/10/05 02:24:21;;;;;;;9.52;6.28;;;15.90;99.90;;;;;;5067758;27;20031;-55
2022/10/05 02:26:49;;;;;;;6.85;6.15;;;15.80;99.90;;;;;;5124081;27;20085;-53
2022/10/05 02:29:17;;;;;;;6.63;5.72;;;15.80;99.90;;;;;;5065077;27;20039;-53
2022/10/05 02:31:47;;;;;;;8.75;6.72;;;15.80;99.90;;;;;;5127185;27;20023;-55
2022/10/05 02:34:26;;;;;;;7.30;5.93;;;15.70;99.90;;;;;;5060390;27;20023;-54
2022/10/05 02:37:11;;;;;;;8.65;5.95;;;15.70;99.90;;;;;;5126300;27;20079;-56
2022/10/05 02:40:05;;;;;;;7.03;5.90;;;15.70;99.90;;;;;;5067265;27;20023;-55
2022/10/05 02:42:43;;;;;;;7.32;5.90;;;15.70;99.90;;;;;;5118028;27;20090;-54
2022/10/05 02:45:32;;;;;;;8.27;6.90;;;15.70;99.90;;;;;;5067597;27;20763;-59
2022/10/05 02:48:06;;;;;;;9.18;6.10;;;15.70;99.90;;;;;;5118470;27;20156;-58
2022/10/05 02:50:50;;;;;;;5.85;5.25;;;15.70;99.90;;;;;;5061653;27;20054;-50
2022/10/05 02:53:36;;;;;;;7.85;5.97;;;15.60;99.90;;;;;;5116138;27;20031;-54
2022/10/05 02:56:22;;;;;;;8.30;6.40;;;15.70;99.90;;;;;;5086317;27;20027;-55
2022/10/05 02:58:58;;;;;;;6.82;6.13;;;15.70;99.90;;;;;;5100119;27;20056;-51
2022/10/05 03:01:29;;;;;;;8.63;6.80;;;15.60;99.90;;;;;;5094414;27;20051;-50
2022/10/05 03:04:23;;;;;;;7.75;6.38;;;15.60;99.90;;;;;;5098237;27;20071;-48
2022/10/05 03:07:22;;;;;;;7.88;5.80;;;15.60;99.90;;;;;;5105393;27;20083;-51
2022/10/05 03:10:01;;;;;;;8.95;6.63;;;15.60;99.90;;;;;;5073069;27;20120;-58
2022/10/05 03:12:54;;;;;;;7.55;5.90;;;15.60;99.90;;;;;;5124435;27;20023;-57
2022/10/05 03:15:38;;;;;;;;;;;15.60;99.90;;;;;;5060419;27;20037;-57
2022/10/05 03:18:11;;;;;;;6.78;6.10;;;15.60;99.90;;;;;;5125255;27;19977;-55
2022/10/05 03:20:50;;;;;;;7.13;5.65;;;15.60;99.90;;;;;;5060270;27;20037;-54
2022/10/05 03:23:44;;;;;;;7.78;5.93;;;15.70;99.90;;;;;;5125259;27;20041;-58
2022/10/05 03:26:32;;;;;;;6.97;5.88;;;15.60;99.90;;;;;;5073119;27;20136;-56
2022/10/05 03:29:14;;;;;;;10.13;7.95;;;15.70;99.90;;;;;;5028999;27;20102;-55
2022/10/05 03:31:45;;;;;;;;;;;15.60;99.90;;;;;;5079989;27;20022;-57
2022/10/05 03:34:25;;;;;;;10.10;6.22;;;15.60;99.90;;;;;;5028204;27;19909;-57
2022/10/05 03:37:19;;;;;;;7.35;5.65;;;15.60;99.90;;;;;;5080522;27;20075;-55
2022/10/05 03:40:10;;;;;;;7.45;6.57;;;15.60;99.90;;;;;;5035007;27;20035;-55
2022/10/05 03:43:17;;;;;;;9.10;6.88;;;15.60;99.90;;;;;;5086252;27;20023;-57
2022/10/05 03:46:05;;;;;;;9.88;7.00;;;15.60;99.90;;;;;;5083099;27;20746;-57
2022/10/05 03:48:57;;;;;;;7.35;6.35;;;15.60;99.90;;;;;;5117653;27;20475;-54
2022/10/05 03:51:35;;;;;;;8.25;7.00;;;15.60;99.90;;;;;;5062923;27;20050;-54
2022/10/05 03:54:12;;;;;;;8.40;6.55;;;15.60;99.90;;;;;;5001316;28;20152;-54
2022/10/05 03:56:48;;;;;;;7.68;6.65;;;15.60;99.90;;;;;;5083301;27;20481;-54
2022/10/05 03:59:19;;;;;;;8.07;6.78;;;15.70;99.90;;;;;;5021434;28;20028;-54
2022/10/05 04:01:52;;;;;;;10.90;6.57;;;15.70;99.90;;;;;;5084852;27;20188;-56
2022/10/05 04:04:38;;;;;;;7.72;6.38;;;15.70;99.90;;;;;;5072720;27;20477;-55
2022/10/05 04:07:10;;;;;;;6.75;5.93;;;15.70;99.90;;;;;;5059007;27;20021;-57
2022/10/05 04:09:40;;;;;;;8.48;6.07;;;15.70;99.90;;;;;;5125606;27;20031;-57
2022/10/05 04:12:50;;;;;;;7.40;6.20;;;15.70;99.90;;;;;;5060703;27;20021;-57
2022/10/05 04:15:35;;;;;;;8.20;7.22;;;15.70;99.90;;;;;;5004040;28;20059;-57
2022/10/05 04:18:06;;;;;;;8.40;7.60;;;15.70;99.90;;;;;;5076648;27;20112;-56
2022/10/05 04:20:42;;;;;;;7.38;6.50;;;15.70;99.90;;;;;;5021089;27;20025;-58
2022/10/05 04:23:33;;;;;;;7.07;6.38;;;15.70;99.90;;;;;;5075225;27;20037;-61
2022/10/05 04:26:05;;;;;;;8.25;6.50;;;15.70;99.90;;;;;;5028736;27;20118;-57
2022/10/05 04:29:00;;;;;;;6.60;5.80;;;15.60;99.90;;;;;;5078751;27;20025;-56
2022/10/05 04:31:55;;;;;;;8.25;5.68;;;15.70;99.90;;;;;;5027550;27;20040;-55
2022/10/05 04:34:52;;;;;;;7.72;6.20;;;15.70;99.90;;;;;;5078887;27;20701;-58
2022/10/05 04:37:47;;;;;;;9.45;6.90;;;15.70;99.90;;;;;;5089055;27;20028;-57
2022/10/05 04:40:46;;;;;;;6.65;5.78;;;15.70;99.90;;;;;;5014503;27;20033;-58
2022/10/05 04:43:14;;;;;;;6.18;5.43;;;15.70;99.90;;;;;;5085468;27;20033;-56
2022/10/05 04:46:07;;;;;;;7.05;6.35;;;15.70;99.90;;;;;;5021446;28;20161;-54
2022/10/05 04:49:12;;;;;;;5.97;5.20;;;15.70;99.90;;;;;;5085006;27;20027;-59
2022/10/05 04:52:03;;;;;;;7.00;6.18;;;15.70;99.90;;;;;;5024535;28;20037;-55
2022/10/05 04:54:37;;;;;;;6.72;6.07;;;15.70;99.90;;;;;;5077385;27;20026;-52
2022/10/05 04:57:12;;;;;;;5.82;5.22;;;15.70;99.90;;;;;;5026779;27;20022;-57
2022/10/05 05:00:21;;;;;;;6.38;4.80;;;15.70;99.90;;;;;;5078652;27;20107;-56
2022/10/05 05:03:04;;;;;;;5.63;4.80;;;15.70;99.90;;;;;;5038337;27;20053;-55
2022/10/05 05:06:02;;;;;;;6.72;6.03;;;15.70;99.90;;;;;;5000079;28;20769;-57
2022/10/05 05:08:59;;;;;;;7.05;6.32;;;15.70;99.90;;;;;;5053221;27;20103;-55
2022/10/05 05:11:36;;;;;;;6.97;6.15;;;15.70;99.90;;;;;;5020577;27;20078;-57
2022/10/05 05:14:30;;;;;;;6.75;5.25;;;15.70;99.90;;;;;;5042123;27;20038;-58
2022/10/05 05:17:33;;;;;;;5.93;5.25;;;15.70;99.90;;;;;;5000391;28;20092;-57
2022/10/05 05:20:18;;;;;;;;;;;15.70;99.90;;;;;;5065940;27;20421;-57
2022/10/05 05:22:52;;;;;;;6.65;5.63;;;15.70;99.90;;;;;;5117489;27;19915;-56
2022/10/05 05:25:18;;;;;;;5.60;5.10;;;15.70;99.90;;;;;;5074676;28;20036;-57
2022/10/05 05:27:53;;;;;;;7.97;6.20;;;15.70;99.90;;;;;;5020673;28;20017;-53
2022/10/05 05:30:20;;;;;;;6.90;5.90;;;15.70;99.90;;;;;;5064065;28;20055;-54
2022/10/05 05:32:51;;;;;;;7.00;5.85;;;15.70;99.90;;;;;;5123353;27;20036;-54
2022/10/05 05:35:29;;;;;;;7.13;5.88;;;15.70;99.90;;;;;;5057932;28;20027;-55
2022/10/05 05:37:57;;;;;;;7.78;5.57;;;15.60;99.90;;;;;;5123427;27;20034;-57
2022/10/05 05:40:30;;;;;;;7.05;5.80;;;15.70;99.90;;;;;;5075215;28;20476;-58
2022/10/05 05:43:18;;;;;;;6.55;5.95;;;15.70;99.90;;;;;;5121423;27;20027;-59
2022/10/05 05:45:58;;;;;;;6.15;5.50;;;15.70;99.90;;;;;;5056541;28;20092;-57
2022/10/05 05:48:35;;;;;;;8.02;6.80;;;15.70;99.90;;;;;;5122658;27;20054;-57
2022/10/05 05:51:16;;;;;;;7.03;6.07;;;15.70;99.90;;;;;;5064232;28;20090;-58
2022/10/05 05:53:45;;;;;;;8.65;6.95;;;15.60;99.90;;;;;;5119348;27;20069;-58
2022/10/05 05:56:13;;;;;;;7.07;6.03;;;15.60;99.90;;;;;;5063093;28;20110;-57
2022/10/05 05:58:53;;;;;;;8.20;6.70;;;15.60;99.90;;;;;;5123153;27;20023;-56
2022/10/05 06:01:43;;;;;;;7.07;6.32;;;15.60;99.90;;;;;;5060813;28;20023;-58
2022/10/05 06:04:25;;;;;;;7.45;5.68;;;15.60;99.90;;;;;;5110665;27;20080;-59
2022/10/05 06:06:53;;;;;;;6.43;5.60;;;15.60;99.90;;;;;;5063920;27;20110;-58
2022/10/05 06:09:37;;;;;;;7.35;6.47;;;15.60;99.90;;;;;;5114869;27;20595;-58
2022/10/05 06:12:14;;;;;;;6.25;5.65;;;15.60;99.90;;;;;;5064854;27;20095;-57
2022/10/05 06:14:46;;;;;;;7.35;5.82;;;15.60;99.90;;;;;;5114899;27;20022;-57
2022/10/05 06:17:33;;;;;;;5.40;4.90;;;15.60;99.90;;;;;;5064163;27;20024;-56
2022/10/05 06:20:02;;;;;;;6.78;5.75;;;15.60;99.90;;;;;;5114659;27;20502;-58
2022/10/05 06:22:42;;;;;;;6.05;5.45;;;15.60;99.90;;;;;;5064931;27;20027;-60
2022/10/05 06:25:10;;;;;;;6.35;5.75;;;15.60;99.90;;;;;;5118585;27;20055;-60
2022/10/05 06:27:56;;;;;;;6.90;5.03;;;15.60;99.90;;;;;;5067092;27;20462;-58
2022/10/05 06:30:21;;;;;;;5.75;5.05;;;15.60;99.90;;;;;;5118586;27;20822;-57
2022/10/05 06:33:37;;;;;;;6.50;4.97;;;15.60;99.90;;;;;;5068542;27;20011;-57
2022/10/05 06:36:27;;;;;;;6.18;5.13;;;15.60;99.90;;;;;;5100702;27;20033;-58
2022/10/05 06:39:14;;;;;;;5.90;4.95;;;15.60;99.90;;;;;;5101776;27;20186;-57
2022/10/05 06:42:02;;;;;;;5.28;4.15;;;15.70;99.90;;;;;;5080999;27;20104;-57
2022/10/05 06:44:48;;;;;;;4.20;3.72;;;15.60;99.90;;;;;;5013324;28;20050;-59
2022/10/05 06:47:34;;;;;;;4.63;4.18;;;15.70;99.90;;;;;;5083786;27;20122;-58
2022/10/05 06:50:11;;;;;;;4.43;3.92;;;15.70;99.90;;;;;;5002838;28;20166;-58
2022/10/05 06:52:48;;;;;;;4.80;4.20;;;15.70;99.90;;;;;;5085595;27;20609;-59
2022/10/05 06:55:47;;;;;;;5.70;4.45;;;15.70;99.90;;;;;;5021618;28;20033;-59
2022/10/05 06:58:49;;;;;;;4.60;4.20;;;15.80;99.90;;;;;;5064425;27;20501;-58
2022/10/05 07:01:33;;;;;;;5.45;4.53;;;15.80;99.90;;;;;;5114225;27;20042;-60
2022/10/05 07:04:13;;;;;;;5.07;4.10;;;15.80;99.90;;;;;;5025820;27;20105;-58
2022/10/05 07:06:45;;;;;;;4.72;3.50;;;15.80;99.90;;;;;;5029854;27;20025;-58
2022/10/05 07:09:16;;;;;;;4.78;3.90;;;15.80;99.90;;;;;;5061316;27;20031;-59
2022/10/05 07:12:04;;;;;;;4.30;3.20;;;15.90;99.90;;;;;;5118871;27;20013;-59
2022/10/05 07:14:48;;;;;;;3.92;3.58;;;15.90;99.90;;;;;;5070064;27;20414;-58
2022/10/05 07:17:41;;;;;;;3.67;3.38;;;15.90;99.90;;;;;;5107544;27;20027;-59
2022/10/05 07:20:15;;;;;;;;;;;15.90;99.90;;;;;;5095398;27;20509;-58
2022/10/05 07:23:00;;;;;;;5.07;3.42;;;16.00;99.90;;;;;;5096131;27;19919;-58
2022/10/05 07:25:32;;;;;;;3.55;3.20;;;16.00;99.90;;;;;;5103283;27;20835;-60
2022/10/05 07:28:07;;;;;;;4.03;3.60;;;16.00;99.90;;;;;;5091849;27;20025;-57
2022/10/05 07:30:59;;;;;;;4.18;3.78;;;16.00;99.90;;;;;;5100834;27;20016;-60
2022/10/05 07:33:38;;;;;;;4.97;3.30;;;16.00;99.90;;;;;;5079190;27;20021;-57
2022/10/05 07:39:16;;;;;;;3.40;3.10;;;16.10;99.90;;;;;;5058756;27;20090;-59
2022/10/05 07:41:50;;;;;;;4.28;3.80;;;16.10;99.90;;;;;;5125610;27;20463;-59
2022/10/05 07:44:29;;;;;;;3.65;3.13;;;16.10;99.90;;;;;;5059645;27;20447;-58
2022/10/05 07:47:34;;;;;;;6.68;4.43;;;16.20;99.90;;;;;;5125981;27;20140;-56
2022/10/05 07:50:14;;;;;;;4.03;3.30;;;16.20;99.90;;;;;;5080519;27;20040;-58
2022/10/05 07:52:45;;;;;;;4.30;3.90;;;16.20;99.90;;;;;;5024278;27;20070;-59
2022/10/05 07:55:34;;;;;;;4.97;4.22;;;16.10;99.90;;;;;;5075314;27;20033;-59
2022/10/05 07:58:06;;;;;;;3.95;3.55;;;16.20;99.90;;;;;;5028743;27;20080;-57
2022/10/05 08:00:46;;;;;;;;;;;16.20;99.90;;;;;;5078891;27;20018;-58
2022/10/05 08:03:41;;;;;;;3.40;3.10;;;16.20;99.90;;;;;;5027649;27;20276;-56
2022/10/05 08:06:13;;;;;;;3.38;2.92;;;16.20;99.90;;;;;;5079066;27;20367;-54
2022/10/05 08:09:17;;;;;;;5.07;3.63;;;16.20;99.90;;;;;;5118545;27;20015;-55
2022/10/05 08:12:06;;;;;;;5.30;3.40;;;16.30;99.90;;;;;;5084615;27;20576;-59
2022/10/05 08:14:38;;;;;;;3.78;3.35;;;16.30;99.90;;;;;;5089703;27;20056;-57
2022/10/05 08:17:35;;;;;;;4.85;3.10;;;16.30;99.90;;;;;;5099411;27;20081;-57
2022/10/05 08:20:30;;;;;;;3.47;2.70;;;16.30;99.90;;;;;;5055167;27;20178;-58
2022/10/05 08:23:32;;;;;;;4.13;3.10;;;16.30;99.90;;;;;;5001730;28;20045;-58
2022/10/05 08:26:21;;;;;;;3.25;2.88;;;16.40;99.90;;;;;;5086192;27;20029;-59
2022/10/05 08:29:04;;;;;;;4.72;3.05;;;16.30;99.90;;;;;;5021242;28;20045;-57
2022/10/05 08:31:36;;;;;;;4.70;2.78;;;16.40;99.90;;;;;;5076918;27;20028;-57
2022/10/05 08:34:09;;;;;;;3.10;2.77;;;16.40;99.90;;;;;;5023270;28;20033;-55
2022/10/05 08:36:52;;;;;;;4.20;3.03;;;16.50;99.90;;;;;;5075458;27;20033;-57
2022/10/05 08:39:20;;;;;;;3.58;2.70;;;16.50;99.90;;;;;;5026765;27;20034;-57
2022/10/05 08:41:45;;;;;;;2.60;2.40;;;16.60;99.90;;;;;;5074784;27;20102;-53
2022/10/05 08:44:49;;;;;;;2.90;2.50;;;16.60;99.90;;;;;;5019857;28;20054;-58
2022/10/05 08:47:39;;;;;;;3.25;2.53;;;16.70;99.90;;;;;;5078454;27;20025;-57
2022/10/05 08:50:26;;;;;;;4.63;3.00;;;16.70;99.90;;;;;;5028409;27;20037;-54
2022/10/05 08:53:16;;;;;;;2.65;2.42;;;16.80;99.90;;;;;;5072565;27;20019;-58
2022/10/05 08:56:08;;;;;;;3.25;2.92;;;16.90;99.90;;;;;;5098365;27;20032;-53
2022/10/05 08:58:53;;;;;;;3.22;2.92;;;16.90;99.90;;;;;;5103360;27;20086;-57
2022/10/05 09:02:16;;;;;;;3.45;2.53;;;17.00;99.90;;;;;;5078723;27;20029;-56
2022/10/05 09:04:56;;;;;;;2.50;2.30;;;17.00;99.90;;;;;;5052029;28;20091;-58
2022/10/05 09:07:35;;;;;;;2.88;2.33;;;17.10;99.90;;;;;;5059409;28;20051;-57
2022/10/05 09:10:46;;;;;;;4.53;2.60;;;17.10;99.90;;;;;;5013393;28;20038;-56
2022/10/05 09:13:33;;;;;;;3.83;2.95;;;17.10;99.90;;;;;;5077250;27;20385;-54
2022/10/05 09:16:05;;;;;;;2.58;2.25;;;17.20;99.90;;;;;;5013612;27;20631;-57
2022/10/05 09:19:01;;;;;;;2.42;2.22;;;17.20;99.90;;;;;;5072176;28;20426;-57
2022/10/05 09:21:30;;;;;;;3.70;2.50;;;17.30;99.90;;;;;;5039890;28;20886;-54
2022/10/05 09:24:11;;;;;;;3.08;2.55;;;17.40;99.90;;;;;;5061862;28;20554;-57
2022/10/05 09:27:08;;;;;;;3.13;2.60;;;17.50;99.90;;;;;;5040886;28;20021;-58
2022/10/05 09:29:53;;;;;;;3.40;2.88;;;17.50;99.90;;;;;;5042429;27;20473;-57
2022/10/05 09:32:36;;;;;;;6.53;3.10;;;17.60;99.90;;;;;;5061545;28;20027;-57
2022/10/05 09:35:38;;;;;;;3.58;2.58;;;17.60;99.90;;;;;;5029353;28;20037;-57
2022/10/05 09:38:28;;;;;;;4.60;3.17;;;17.70;99.90;;;;;;5084092;28;20031;-54
2022/10/05 09:41:16;;;;;;;4.18;3.13;;;17.70;99.90;;;;;;5021031;28;20037;-58
2022/10/05 09:44:16;;;;;;;3.88;3.28;;;17.80;99.90;;;;;;5060361;28;20847;-55
2022/10/05 09:46:53;;;;;;;3.35;2.80;;;17.80;99.90;;;;;;5116575;27;20020;-59
2022/10/05 09:49:36;;;;;;;2.70;2.35;;;17.90;99.90;;;;;;5064848;28;20126;-55
2022/10/05 09:52:24;;;;;;;2.92;2.60;;;17.90;99.90;;;;;;5116188;28;20082;-58
2022/10/05 09:55:08;;;;;;;2.95;2.40;;;18.00;99.90;;;;;;5067275;28;20032;-57
2022/10/05 09:57:47;;;;;;;3.72;3.10;;;18.10;99.90;;;;;;5111609;27;20056;-59
2022/10/05 10:00:41;;;;;;;3.35;2.55;;;18.10;99.90;;;;;;5087935;27;20042;-58
2022/10/05 10:03:19;;;;;;;2.85;2.65;;;18.20;99.90;;;;;;5094847;27;20132;-56
2022/10/05 10:06:12;;;;;;;3.50;2.90;;;18.20;99.90;;;;;;5123959;27;20042;-57
2022/10/05 10:08:51;;;;;;;4.93;3.13;;;18.20;99.90;;;;;;5079752;27;20022;-58
2022/10/05 10:11:33;;;;;;;5.95;2.85;;;18.30;99.90;;;;;;5119364;27;20114;-60
2022/10/05 10:14:41;;;;;;;4.18;3.00;;;18.40;99.90;;;;;;5071044;27;20026;-58
2022/10/05 10:17:25;;;;;;;3.47;2.88;;;18.50;99.90;;;;;;5019204;28;20110;-59
2022/10/05 10:20:11;;;;;;;2.92;2.10;;;18.50;99.90;;;;;;5060686;27;20035;-54
2022/10/05 10:23:00;;;;;;;4.47;1.92;;;18.50;99.90;;;;;;5127501;27;20034;-57
2022/10/05 10:26:03;;;;;;;2.70;2.13;;;18.50;99.90;;;;;;5080102;27;20379;-54
2022/10/05 10:28:37;;;;;;;;;;;18.60;99.90;;;;;;5033518;27;20163;-57
2022/10/05 10:31:21;;;;;;;3.72;2.08;;;18.60;99.90;;;;;;5069922;27;19908;-57
2022/10/05 10:33:55;;;;;;;3.15;2.28;;;18.70;99.90;;;;;;5038617;27;20040;-57
2022/10/05 10:36:42;;;;;;;3.75;2.40;;;18.70;99.90;;;;;;5064542;27;20032;-57
2022/10/05 10:39:32;;;;;;;2.47;2.22;;;18.70;99.90;;;;;;5047382;27;20047;-59
2022/10/05 10:42:23;;;;;;;3.40;2.25;;;18.80;99.90;;;;;;5044782;27;20033;-58
2022/10/05 10:45:15;;;;;;;2.50;2.13;;;18.90;99.90;;;;;;5068585;27;20087;-59
2022/10/05 10:47:40;;;;;;;2.95;1.85;;;19.00;99.90;;;;;;5002266;28;20481;-58
2022/10/05 10:50:43;;;;;;;3.47;2.15;;;19.00;99.90;;;;;;5067951;27;20033;-57
2022/10/05 10:53:32;;;;;;;2.25;2.05;;;19.10;99.90;;;;;;5002086;28;20106;-58
2022/10/05 10:56:31;;;;;;;2.95;2.50;;;19.00;99.90;;;;;;5087368;27;20036;-58
2022/10/05 10:59:03;;;;;;;3.03;1.85;;;19.00;99.90;;;;;;5029342;27;20494;-54
2022/10/05 11:01:38;;;;;;;2.42;1.98;;;19.00;99.90;;;;;;5076167;27;20025;-57
2022/10/05 11:04:22;;;;;;;2.63;2.00;;;19.00;99.90;;;;;;5029067;27;20041;-58
2022/10/05 11:07:06;;;;;;;4.18;2.30;;;19.00;99.90;;;;;;5079221;27;20029;-56
2022/10/05 11:09:49;;;;;;;3.15;2.20;;;19.10;99.90;;;;;;5027514;27;20608;-57
2022/10/05 11:13:09;;;;;;;4.57;2.95;;;19.10;99.90;;;;;;5060295;27;20041;-58
2022/10/05 11:15:56;;;;;;;2.47;1.90;;;19.10;99.90;;;;;;5060840;28;20115;-53
2022/10/05 11:18:54;;;;;;;2.83;2.03;;;19.10;99.90;;;;;;5113682;27;20114;-57
2022/10/05 11:21:29;;;;;;;4.38;2.20;;;19.10;99.90;;;;;;5062643;27;20094;-57
2022/10/05 11:24:16;;;;;;;3.03;2.03;;;19.10;99.90;;;;;;5001944;28;20049;-56
2022/10/05 11:27:06;;;;;;;3.63;1.80;;;19.10;99.90;;;;;;5084495;27;20019;-56
2022/10/05 11:30:00;;;;;;;4.15;2.08;;;19.10;99.90;;;;;;5021867;28;20146;-57
2022/10/05 11:32:59;;;;;;;2.00;1.80;;;19.20;99.90;;;;;;5080102;27;20033;-58
2022/10/05 11:35:47;;;;;;;2.60;2.10;;;19.20;99.90;;;;;;5017464;27;20107;-58
2022/10/05 11:38:28;;;;;;;3.58;2.28;;;19.20;99.90;;;;;;5064467;27;20101;-58
2022/10/05 11:41:11;;;;;;;4.82;2.10;;;19.20;99.90;;;;;;5113872;27;20101;-57
2022/10/05 11:43:51;;;;;;;2.85;2.00;;;19.20;99.90;;;;;;5084598;27;20075;-59
2022/10/05 11:46:36;;;;;;;2.80;1.98;;;19.30;99.90;;;;;;5104399;27;20027;-57
2022/10/05 11:49:23;;;;;;;3.50;2.50;;;19.30;99.90;;;;;;5095543;27;20031;-58
2022/10/05 11:52:22;;;;;;;2.63;2.10;;;19.30;99.90;;;;;;5088124;27;20017;-59
2022/10/05 11:54:53;;;;;;;3.55;2.13;;;19.40;99.90;;;;;;5120408;27;20035;-57
2022/10/05 11:57:32;;;;;;;4.93;2.53;;;19.40;99.90;;;;;;5074262;27;20041;-58
2022/10/05 12:00:16;;;;;;;2.65;2.05;;;19.40;99.90;;;;;;5119910;27;20027;-58
2022/10/05 12:03:15;;;;;;;2.80;2.00;;;19.40;99.90;;;;;;5065093;27;20359;-57
2022/10/05 12:06:22;;;;;;;2.58;1.73;;;19.50;99.90;;;;;;5108761;27;20042;-54
2022/10/05 12:08:53;;;;;;;2.22;1.90;;;19.50;99.90;;;;;;5077536;27;20349;-57
2022/10/05 12:11:41;;;;;;;2.30;1.95;;;19.50;99.90;;;;;;5025949;27;20061;-58
2022/10/05 12:14:23;;;;;;;1.80;1.70;;;19.50;99.90;;;;;;5078099;27;20037;-57
2022/10/05 12:17:08;;;;;;;2.25;2.05;;;19.60;99.90;;;;;;5027934;27;20027;-58
2022/10/05 12:19:56;;;;;;;2.88;2.03;;;19.70;99.90;;;;;;5062142;27;20038;-59
2022/10/05 12:22:32;;;;;;;2.20;1.80;;;19.70;99.90;;;;;;5108618;27;20030;-57
2022/10/05 12:25:28;;;;;;;2.38;1.70;;;19.70;99.90;;;;;;5083115;27;20107;-56
2022/10/05 12:27:58;;;;;;;2.75;1.88;;;19.80;99.90;;;;;;5093191;27;20039;-58
2022/10/05 12:30:33;;;;;;;2.67;1.70;;;19.90;99.90;;;;;;5094506;27;20110;-54
2022/10/05 12:33:02;;;;;;;2.42;1.95;;;19.90;99.90;;;;;;5097362;27;20151;-56
2022/10/05 12:35:58;;;;;;;3.40;2.17;;;20.00;99.90;;;;;;5089090;27;20353;-57
2022/10/05 12:38:33;;;;;;;3.33;1.85;;;20.00;99.90;;;;;;5087316;27;20112;-58
2022/10/05 12:41:23;;;;;;;2.13;1.77;;;20.00;99.90;;;;;;5104576;27;20351;-57
2022/10/05 12:44:14;;;;;;;3.03;2.05;;;20.10;99.90;;;;;;5076428;27;20563;-57
2022/10/05 12:46:57;;;;;;;2.20;1.70;;;20.10;99.90;;;;;;5001893;28;20029;-56
2022/10/05 12:49:39;;;;;;;5.00;2.17;;;20.10;99.90;;;;;;5082180;27;20031;-58
2022/10/05 12:52:12;;;;;;;1.50;1.40;;;20.10;99.90;;;;;;5001345;28;20496;-55
2022/10/05 12:55:13;;;;;;;2.40;1.92;;;20.10;99.90;;;;;;5082557;27;20485;-57
2022/10/05 12:58:15;;;;;;;3.00;1.50;;;20.10;99.90;;;;;;4959571;28;20429;-59
2022/10/05 13:01:07;;;;;;;2.55;1.52;;;20.20;99.90;;;;;;5077778;27;20839;-57
2022/10/05 13:03:36;;;;;;;2.30;1.70;;;20.30;99.90;;;;;;5027372;28;20038;-57
2022/10/05 13:06:12;;;;;;;1.63;1.40;;;20.30;99.90;;;;;;5122767;27;20135;-58
2022/10/05 13:09:00;;;;;;;2.03;1.52;;;20.30;99.90;;;;;;5092092;27;20017;-56
2022/10/05 13:11:42;;;;;;;2.45;1.65;;;20.30;99.90;;;;;;5069872;27;21085;-57
2022/10/05 13:14:49;;;;;;;2.72;1.30;;;20.40;99.90;;;;;;5106702;27;20390;-58
2022/10/05 13:17:32;;;;;;;1.88;1.67;;;20.40;99.90;;;;;;4998954;28;20850;-58
2022/10/05 13:20:13;;;;;;;4.32;1.80;;;20.40;99.90;;;;;;5066984;28;20312;-59
2022/10/05 13:22:45;;;;;;;2.40;1.55;;;20.50;99.90;;;;;;5028663;27;20166;-62
2022/10/05 13:25:29;;;;;;;1.83;1.40;;;20.50;99.90;;;;;;5068180;28;20045;-55
2022/10/05 13:28:15;;;;;;;2.35;1.45;;;20.50;99.90;;;;;;5025252;28;20116;-54
2022/10/05 13:30:50;;;;;;;1.90;1.27;;;20.60;99.90;;;;;;5082347;27;20108;-58
2022/10/05 13:33:26;;;;;;;3.10;1.50;;;20.60;99.90;;;;;;5003985;28;20112;-59
2022/10/05 13:35:51;;;;;;;3.63;1.40;;;20.70;99.90;;;;;;5082068;27;20034;-55
2022/10/05 13:38:42;;;;;;;1.77;1.30;;;20.70;99.90;;;;;;5026151;27;20030;-57
2022/10/05 13:41:13;;;;;;;1.30;1.20;;;20.60;99.90;;;;;;5089177;27;20066;-58
2022/10/05 13:43:43;;;;;;;1.25;1.00;;;20.70;99.90;;;;;;5023459;28;20041;-58
2022/10/05 13:46:41;;;;;;;1.95;1.35;;;20.70;99.90;;;;;;5083277;27;20019;-58
2022/10/05 13:49:25;;;;;;;1.52;1.27;;;20.80;99.90;;;;;;5003825;28;20061;-56
2022/10/05 13:52:22;;;;;;;3.65;1.25;;;20.80;99.90;;;;;;5088677;27;20451;-55
2022/10/05 13:55:07;;;;;;;1.98;1.30;;;20.80;99.90;;;;;;5029707;27;20034;-58
2022/10/05 13:57:43;;;;;;;1.63;1.48;;;20.80;99.90;;;;;;5080491;27;20548;-56
2022/10/05 14:00:24;;;;;;;4.18;1.50;;;20.80;99.90;;;;;;5030698;27;20500;-57
2022/10/05 14:02:52;;;;;;;1.60;1.30;;;20.80;99.90;;;;;;5081882;27;20786;-54
2022/10/05 14:05:30;;;;;;;3.80;1.33;;;20.80;99.90;;;;;;5081353;27;20037;-58
2022/10/05 14:08:03;;;;;;;1.45;1.35;;;20.80;99.90;;;;;;5069383;27;20051;-58
2022/10/05 14:10:33;;;;;;;1.90;1.48;;;20.70;99.90;;;;;;5119791;27;20031;-57
2022/10/05 14:13:07;;;;;;;2.80;1.80;;;20.80;99.90;;;;;;5068332;27;20398;-57